Time,TemperatureF,DewpointF,PressureIn,WindDirection,WindDirectionDegrees,WindSpeedMPH,WindSpeedGustMPH,Humidity,HourlyPrecipIn,Conditions,Clouds,dailyrainin,SoftwareType,DateUTC
2013-08-09 00:04:00,69.8,67.1,29.50,SW,218,0.0,0.0,91,0.00,,,0.00,Wunderground v.1.15,2013-08-09 05:04:00,
2013-08-09 00:09:00,69.8,67.1,29.49,SW,218,0.0,0.0,91,0.00,,,0.00,Wunderground v.1.15,2013-08-09 05:09:00,
2013-08-09 00:15:00,69.7,67.0,29.49,SW,218,0.0,0.0,91,0.00,,,0.00,Wunderground v.1.15,2013-08-09 05:15:00,
2013-08-09 00:20:00,69.8,67.1,29.49,SW,218,0.0,0.0,91,0.00,,,0.00,Wunderground v.1.15,2013-08-09 05:20:00,
2013-08-09 00:25:00,69.8,67.1,29.49,SW,218,0.0,0.0,91,0.00,,,0.00,Wunderground v.1.15,2013-08-09 05:25:00,
2013-08-09 00:31:00,69.8,67.4,29.49,SW,218,0.0,0.0,92,0.00,,,0.00,Wunderground v.1.15,2013-08-09 05:31:00,
2013-08-09 00:37:00,69.9,67.2,29.49,SW,218,0.0,0.0,91,0.00,,,0.00,Wunderground v.1.15,2013-08-09 05:37:00,
2013-08-09 00:42:00,69.8,67.1,29.49,SW,218,0.0,0.0,91,0.00,,,0.00,Wunderground v.1.15,2013-08-09 05:42:00,
2013-08-09 00:48:00,69.8,67.1,29.49,SW,218,0.0,0.0,91,0.00,,,0.00,Wunderground v.1.15,2013-08-09 05:48:00,
2013-08-09 00:53:00,69.8,67.1,29.49,SW,218,0.0,0.0,91,0.00,,,0.00,Wunderground v.1.15,2013-08-09 05:53:00,
2013-08-09 00:58:00,69.8,67.1,29.49,SW,218,0.0,0.0,91,0.00,,,0.00,Wunderground v.1.15,2013-08-09 05:58:00,
2013-08-09 01:04:00,69.7,67.3,29.49,SW,218,0.0,0.0,92,0.00,,,0.00,Wunderground v.1.15,2013-08-09 06:04:00,
2013-08-09 01:09:00,69.7,67.3,29.49,SW,218,0.0,0.0,92,0.00,,,0.00,Wunderground v.1.15,2013-08-09 06:09:00,
2013-08-09 01:14:00,69.7,67.3,29.48,SW,218,0.0,0.0,92,0.00,,,0.00,Wunderground v.1.15,2013-08-09 06:14:00,
2013-08-09 01:17:00,69.7,67.3,29.49,SW,218,0.0,0.0,92,0.00,,,0.00,Wunderground v.1.15,2013-08-09 06:17:00,
2013-08-09 01:22:00,69.6,67.2,29.49,SW,218,0.0,0.0,92,0.00,,,0.00,Wunderground v.1.15,2013-08-09 06:22:00,
2013-08-09 01:33:00,69.5,67.1,29.48,SW,218,0.0,0.0,92,0.00,,,0.00,Wunderground v.1.15,2013-08-09 06:33:00,
2013-08-09 01:38:00,69.3,66.9,29.48,SW,218,0.0,0.0,92,0.00,,,0.00,Wunderground v.1.15,2013-08-09 06:38:00,
2013-08-09 01:43:00,69.2,66.8,29.47,SW,218,0.0,0.0,92,0.00,,,0.00,Wunderground v.1.15,2013-08-09 06:43:00,
2013-08-09 01:49:00,69.1,66.7,29.48,SW,218,0.0,0.0,92,0.00,,,0.00,Wunderground v.1.15,2013-08-09 06:49:00,
2013-08-09 01:54:00,69.0,66.6,29.48,SW,218,0.0,0.0,92,0.00,,,0.00,Wunderground v.1.15,2013-08-09 06:54:00,
2013-08-09 01:59:00,68.8,66.4,29.48,SW,218,0.0,0.0,92,0.00,,,0.00,Wunderground v.1.15,2013-08-09 06:59:00,
2013-08-09 02:05:00,68.7,66.3,29.48,SW,218,0.0,0.0,92,0.00,,,0.00,Wunderground v.1.15,2013-08-09 07:05:00,
2013-08-09 02:10:00,68.6,66.2,29.48,SW,218,0.0,0.0,92,0.00,,,0.00,Wunderground v.1.15,2013-08-09 07:10:00,
2013-08-09 02:15:00,68.4,66.0,29.48,SW,218,0.0,0.0,92,0.00,,,0.00,Wunderground v.1.15,2013-08-09 07:15:00,
2013-08-09 02:21:00,68.4,66.0,29.49,SW,218,0.0,0.0,92,0.00,,,0.00,Wunderground v.1.15,2013-08-09 07:21:00,
2013-08-09 02:26:00,68.2,65.8,29.49,SW,218,0.0,0.0,92,0.00,,,0.00,Wunderground v.1.15,2013-08-09 07:26:00,
2013-08-09 02:32:00,68.1,66.0,29.49,SW,218,0.0,0.0,93,0.00,,,0.00,Wunderground v.1.15,2013-08-09 07:32:00,
2013-08-09 02:37:00,68.0,65.9,29.49,SW,218,0.0,0.0,93,0.00,,,0.00,Wunderground v.1.15,2013-08-09 07:37:00,
2013-08-09 02:42:00,67.9,65.8,29.48,SW,218,0.0,0.0,93,0.00,,,0.00,Wunderground v.1.15,2013-08-09 07:42:00,
2013-08-09 02:48:00,67.9,65.8,29.48,SW,218,0.0,0.0,93,0.00,,,0.00,Wunderground v.1.15,2013-08-09 07:48:00,
2013-08-09 02:53:00,67.8,65.7,29.48,SW,218,0.0,0.0,93,0.00,,,0.00,Wunderground v.1.15,2013-08-09 07:53:00,
2013-08-09 02:58:00,67.7,65.6,29.48,SW,218,0.0,0.0,93,0.00,,,0.00,Wunderground v.1.15,2013-08-09 07:58:00,
2013-08-09 03:04:00,67.7,65.6,29.48,SW,218,0.0,0.0,93,0.00,,,0.00,Wunderground v.1.15,2013-08-09 08:04:00,
2013-08-09 03:09:00,67.7,65.6,29.49,SW,218,0.0,0.0,93,0.00,,,0.00,Wunderground v.1.15,2013-08-09 08:09:00,
2013-08-09 03:15:00,67.8,65.7,29.49,SW,218,0.0,0.0,93,0.00,,,0.00,Wunderground v.1.15,2013-08-09 08:15:00,
2013-08-09 03:21:00,67.7,65.6,29.49,SW,218,0.0,0.0,93,0.00,,,0.00,Wunderground v.1.15,2013-08-09 08:21:00,
2013-08-09 03:26:00,67.8,65.7,29.49,SW,218,0.0,0.0,93,0.00,,,0.00,Wunderground v.1.15,2013-08-09 08:26:00,
2013-08-09 03:46:00,67.9,66.1,29.49,SSW,213,0.0,0.0,94,0.00,,,0.00,Wunderground v.1.15,2013-08-09 08:46:00,
2013-08-09 03:52:00,67.9,66.1,29.49,SW,218,0.0,0.0,94,0.00,,,0.00,Wunderground v.1.15,2013-08-09 08:52:00,
2013-08-09 03:58:00,67.9,66.1,29.49,SW,218,0.0,0.0,94,0.00,,,0.00,Wunderground v.1.15,2013-08-09 08:58:00,
2013-08-09 04:04:00,67.9,66.1,29.49,SSW,209,0.0,0.0,94,0.00,,,0.00,Wunderground v.1.15,2013-08-09 09:04:00,
2013-08-09 04:09:00,67.9,66.1,29.49,SW,218,0.0,0.0,94,0.00,,,0.00,Wunderground v.1.15,2013-08-09 09:09:00,
2013-08-09 04:15:00,67.9,65.8,29.49,SW,218,0.0,0.0,93,0.00,,,0.00,Wunderground v.1.15,2013-08-09 09:15:00,
2013-08-09 04:32:00,67.8,66.0,29.49,SW,218,0.0,0.0,94,0.00,,,0.00,Wunderground v.1.15,2013-08-09 09:32:00,
2013-08-09 04:38:00,67.8,66.0,29.50,SW,218,0.0,0.0,94,0.00,,,0.00,Wunderground v.1.15,2013-08-09 09:38:00,
2013-08-09 04:43:00,67.7,65.9,29.50,SW,218,0.0,0.0,94,0.00,,,0.00,Wunderground v.1.15,2013-08-09 09:43:00,
2013-08-09 04:49:00,67.7,65.9,29.50,SW,218,0.0,0.0,94,0.00,,,0.00,Wunderground v.1.15,2013-08-09 09:49:00,
2013-08-09 04:54:00,67.7,65.9,29.50,SW,218,0.0,0.0,94,0.00,,,0.00,Wunderground v.1.15,2013-08-09 09:54:00,
2013-08-09 04:59:00,67.6,65.8,29.50,SW,218,0.0,0.0,94,0.00,,,0.00,Wunderground v.1.15,2013-08-09 09:59:00,
2013-08-09 05:05:00,67.6,65.8,29.49,SW,218,0.0,0.0,94,0.00,,,0.00,Wunderground v.1.15,2013-08-09 10:05:00,
2013-08-09 05:10:00,67.6,65.8,29.50,SW,218,0.0,0.0,94,0.00,,,0.00,Wunderground v.1.15,2013-08-09 10:10:00,
2013-08-09 05:15:00,67.6,65.8,29.49,SW,218,0.0,0.0,94,0.00,,,0.00,Wunderground v.1.15,2013-08-09 10:15:00,
2013-08-09 05:21:00,67.5,65.7,29.50,SW,218,0.0,0.0,94,0.00,,,0.00,Wunderground v.1.15,2013-08-09 10:21:00,
2013-08-09 05:26:00,67.5,65.7,29.50,SW,218,0.0,0.0,94,0.00,,,0.00,Wunderground v.1.15,2013-08-09 10:26:00,
2013-08-09 05:31:00,67.4,65.6,29.50,SW,218,0.0,0.0,94,0.00,,,0.00,Wunderground v.1.15,2013-08-09 10:31:00,
2013-08-09 05:37:00,67.4,65.6,29.50,SW,218,0.0,0.0,94,0.00,,,0.00,Wunderground v.1.15,2013-08-09 10:37:00,
2013-08-09 05:42:00,67.4,65.6,29.50,SW,218,0.0,0.0,94,0.00,,,0.00,Wunderground v.1.15,2013-08-09 10:42:00,
2013-08-09 05:47:00,67.4,65.6,29.50,SW,218,0.0,0.0,94,0.00,,,0.00,Wunderground v.1.15,2013-08-09 10:47:00,
2013-08-09 05:53:00,67.4,65.6,29.50,SW,218,0.0,0.0,94,0.00,,,0.00,Wunderground v.1.15,2013-08-09 10:53:00,
2013-08-09 05:58:00,67.4,65.6,29.50,SW,218,0.0,0.0,94,0.00,,,0.00,Wunderground v.1.15,2013-08-09 10:58:00,
2013-08-09 06:04:00,67.3,65.5,29.51,SW,218,0.0,0.0,94,0.00,,,0.00,Wunderground v.1.15,2013-08-09 11:04:00,
2013-08-09 06:09:00,67.3,65.5,29.51,SW,218,0.0,0.0,94,0.00,,,0.00,Wunderground v.1.15,2013-08-09 11:09:00,
2013-08-09 06:14:00,67.3,65.5,29.51,SW,218,0.0,0.0,94,0.00,,,0.00,Wunderground v.1.15,2013-08-09 11:14:00,
2013-08-09 06:20:00,67.3,65.5,29.51,SW,218,0.0,0.0,94,0.00,,,0.00,Wunderground v.1.15,2013-08-09 11:20:00,
2013-08-09 06:25:00,67.2,65.1,29.51,SW,218,0.0,0.0,93,0.00,,,0.00,Wunderground v.1.15,2013-08-09 11:25:00,
2013-08-09 06:30:00,67.2,65.1,29.51,SW,218,0.0,0.0,93,0.00,,,0.00,Wunderground v.1.15,2013-08-09 11:30:00,
2013-08-09 06:36:00,67.2,65.1,29.51,SW,218,0.0,0.0,93,0.00,,,0.00,Wunderground v.1.15,2013-08-09 11:36:00,
2013-08-09 06:41:00,67.2,65.1,29.50,SW,218,0.0,0.0,93,0.00,,,0.00,Wunderground v.1.15,2013-08-09 11:41:00,
2013-08-09 06:47:00,67.2,65.1,29.51,SW,218,0.0,0.0,93,0.00,,,0.00,Wunderground v.1.15,2013-08-09 11:47:00,
2013-08-09 06:52:00,67.3,65.5,29.51,SW,218,0.0,0.0,94,0.00,,,0.00,Wunderground v.1.15,2013-08-09 11:52:00,
2013-08-09 06:58:00,67.3,65.5,29.52,SSW,202,0.0,0.0,94,0.00,,,0.00,Wunderground v.1.15,2013-08-09 11:58:00,
2013-08-09 07:04:00,67.5,65.7,29.52,SW,218,0.0,0.0,94,0.00,,,0.00,Wunderground v.1.15,2013-08-09 12:04:00,
2013-08-09 07:09:00,67.6,65.5,29.51,SW,218,0.0,0.0,93,0.00,,,0.00,Wunderground v.1.15,2013-08-09 12:09:00,
2013-08-09 07:14:00,67.5,65.7,29.51,SW,218,0.0,0.0,94,0.00,,,0.00,Wunderground v.1.15,2013-08-09 12:14:00,
2013-08-09 07:20:00,67.6,65.5,29.51,SW,218,0.0,0.0,93,0.00,,,0.00,Wunderground v.1.15,2013-08-09 12:20:00,
2013-08-09 07:25:00,67.6,65.5,29.51,SW,218,0.0,0.0,93,0.00,,,0.00,Wunderground v.1.15,2013-08-09 12:25:00,
2013-08-09 07:31:00,67.7,65.6,29.51,SW,218,0.0,0.0,93,0.00,,,0.00,Wunderground v.1.15,2013-08-09 12:31:00,
2013-08-09 07:37:00,67.9,65.8,29.50,SW,218,0.0,3.0,93,0.00,,,0.00,Wunderground v.1.15,2013-08-09 12:37:00,
2013-08-09 07:43:00,68.3,65.9,29.50,SW,218,0.0,0.0,92,0.00,,,0.00,Wunderground v.1.15,2013-08-09 12:43:00,
2013-08-09 07:49:00,68.6,65.5,29.51,SW,218,0.0,0.0,90,0.00,,,0.00,Wunderground v.1.15,2013-08-09 12:49:00,
2013-08-09 07:54:00,68.8,65.1,29.51,SW,218,0.0,0.0,88,0.00,,,0.00,Wunderground v.1.15,2013-08-09 12:54:00,
2013-08-09 08:00:00,69.1,64.7,29.51,SW,218,0.0,0.0,86,0.00,,,0.00,Wunderground v.1.15,2013-08-09 13:00:00,
2013-08-09 08:06:00,69.2,64.5,29.52,SW,218,0.0,0.0,85,0.00,,,0.00,Wunderground v.1.15,2013-08-09 13:06:00,
2013-08-09 08:11:00,69.4,65.0,29.52,SW,218,0.0,0.0,86,0.00,,,0.00,Wunderground v.1.15,2013-08-09 13:11:00,
2013-08-09 08:17:00,-999.9,-99.9,29.52,SW,218,0.0,0.0,87,0.00,,,0.00,Wunderground v.1.15,2013-08-09 13:17:00,
2013-08-09 08:37:00,69.8,65.8,29.52,SW,218,0.0,4.0,87,0.00,,,0.00,Wunderground v.1.15,2013-08-09 13:37:00,
2013-08-09 08:42:00,69.9,64.8,29.52,SW,218,1.0,1.0,84,0.00,,,0.00,Wunderground v.1.15,2013-08-09 13:42:00,
2013-08-09 08:47:00,-999.9,-99.9,29.52,SW,218,1.0,3.0,85,0.00,,,0.00,Wunderground v.1.15,2013-08-09 13:47:00,
2013-08-09 08:53:00,70.3,64.9,29.52,SW,218,1.0,1.0,83,0.00,,,0.00,Wunderground v.1.15,2013-08-09 13:53:00,
2013-08-09 09:01:00,-999.9,-99.9,29.52,SW,218,0.0,0.0,83,0.00,,,0.00,Wunderground v.1.15,2013-08-09 14:01:00,
2013-08-09 09:15:00,72.0,66.2,29.52,SW,218,0.0,0.0,82,0.00,,,0.00,Wunderground v.1.15,2013-08-09 14:15:00,
2013-08-09 09:21:00,72.2,66.0,29.52,SW,218,0.0,0.0,81,0.00,,,0.00,Wunderground v.1.15,2013-08-09 14:21:00,
2013-08-09 09:26:00,72.3,66.1,29.53,SW,218,0.0,0.0,81,0.00,,,0.00,Wunderground v.1.15,2013-08-09 14:26:00,
2013-08-09 09:32:00,72.5,66.3,29.53,SW,218,0.0,0.0,81,0.00,,,0.00,Wunderground v.1.15,2013-08-09 14:32:00,
2013-08-09 09:37:00,72.7,66.5,29.54,SW,218,0.0,0.0,81,0.00,,,0.00,Wunderground v.1.15,2013-08-09 14:37:00,
2013-08-09 09:42:00,72.8,66.6,29.54,SW,218,0.0,0.0,81,0.00,,,0.00,Wunderground v.1.15,2013-08-09 14:42:00,
2013-08-09 09:48:00,74.5,68.6,29.54,SW,218,0.0,0.0,82,0.00,,,0.00,Wunderground v.1.15,2013-08-09 14:48:00,
2013-08-09 09:53:00,73.3,66.8,29.54,SW,218,0.0,0.0,80,0.00,,,0.00,Wunderground v.1.15,2013-08-09 14:53:00,
2013-08-09 09:58:00,73.7,67.1,29.54,SW,218,0.0,0.0,80,0.00,,,0.00,Wunderground v.1.15,2013-08-09 14:58:00,
2013-08-09 10:04:00,74.2,67.3,29.54,SW,218,0.0,0.0,79,0.00,,,0.00,Wunderground v.1.15,2013-08-09 15:04:00,
2013-08-09 10:09:00,74.5,67.2,29.54,SW,218,0.0,0.0,78,0.00,,,0.00,Wunderground v.1.15,2013-08-09 15:09:00,
2013-08-09 10:14:00,74.8,67.1,29.54,SW,218,0.0,0.0,77,0.00,,,0.00,Wunderground v.1.15,2013-08-09 15:14:00,
2013-08-09 10:19:00,75.4,67.7,29.54,SW,218,0.0,0.0,77,0.00,,,0.00,Wunderground v.1.15,2013-08-09 15:19:00,
2013-08-09 10:25:00,75.8,67.3,29.54,SW,218,0.0,0.0,75,0.00,,,0.00,Wunderground v.1.15,2013-08-09 15:25:00,
2013-08-09 10:31:00,76.4,67.5,29.54,SW,218,0.0,0.0,74,0.00,,,0.00,Wunderground v.1.15,2013-08-09 15:31:00,
2013-08-09 10:36:00,76.9,68.4,29.54,SW,218,0.0,2.0,75,0.00,,,0.00,Wunderground v.1.15,2013-08-09 15:36:00,
2013-08-09 10:41:00,77.3,67.6,29.54,SW,218,0.0,0.0,72,0.00,,,0.00,Wunderground v.1.15,2013-08-09 15:41:00,
2013-08-09 10:47:00,77.3,-99.9,29.54,SW,218,0.0,4.0,255,0.00,,,0.00,Wunderground v.1.15,2013-08-09 15:47:00,
2013-08-09 10:52:00,77.0,67.7,29.54,SW,218,0.0,2.0,73,0.00,,,0.00,Wunderground v.1.15,2013-08-09 15:52:00,
2013-08-09 10:57:00,77.4,68.9,29.54,SW,218,0.0,3.0,75,0.00,,,0.00,Wunderground v.1.15,2013-08-09 15:57:00,
2013-08-09 11:03:00,77.3,68.8,29.54,SW,218,0.0,0.0,75,0.00,,,0.00,Wunderground v.1.15,2013-08-09 16:03:00,
2013-08-09 11:08:00,77.4,66.8,29.54,SW,218,0.0,0.0,70,0.00,,,0.00,Wunderground v.1.15,2013-08-09 16:08:00,
2013-08-09 11:13:00,77.4,68.9,29.54,SW,218,0.0,0.0,75,0.00,,,0.00,Wunderground v.1.15,2013-08-09 16:13:00,
2013-08-09 11:25:00,77.3,68.8,29.54,SW,218,0.0,0.0,75,0.00,,,0.00,Wunderground v.1.15,2013-08-09 16:25:00,
2013-08-09 11:31:00,77.4,68.5,29.54,SW,218,1.0,1.0,74,0.00,,,0.00,Wunderground v.1.15,2013-08-09 16:31:00,
2013-08-09 11:37:00,77.3,68.0,29.54,SW,218,0.0,1.0,73,0.00,,,0.00,Wunderground v.1.15,2013-08-09 16:37:00,
2013-08-09 11:43:00,77.5,68.2,29.54,SW,218,0.0,1.0,73,0.00,,,0.00,Wunderground v.1.15,2013-08-09 16:43:00,
2013-08-09 11:49:00,77.7,68.4,29.54,SW,218,0.0,3.0,73,0.00,,,0.00,Wunderground v.1.15,2013-08-09 16:49:00,
2013-08-09 11:54:00,77.7,68.4,29.54,SW,218,0.0,2.0,73,0.00,,,0.00,Wunderground v.1.15,2013-08-09 16:54:00,
2013-08-09 12:00:00,77.9,68.9,29.53,SW,218,1.0,1.0,74,0.00,,,0.00,Wunderground v.1.15,2013-08-09 17:00:00,
2013-08-09 12:06:00,78.4,69.0,29.53,SW,218,0.0,1.0,73,0.00,,,0.00,Wunderground v.1.15,2013-08-09 17:06:00,
2013-08-09 12:12:00,78.4,68.2,29.53,SW,218,0.0,2.0,71,0.00,,,0.00,Wunderground v.1.15,2013-08-09 17:12:00,
2013-08-09 12:17:00,78.5,68.7,29.53,SW,218,0.0,2.0,72,0.00,,,0.00,Wunderground v.1.15,2013-08-09 17:17:00,
2013-08-09 12:23:00,78.6,68.0,29.53,SW,218,0.0,0.0,70,0.00,,,0.00,Wunderground v.1.15,2013-08-09 17:23:00,
2013-08-09 12:28:00,78.8,66.9,29.53,SW,218,0.0,2.0,67,0.00,,,0.00,Wunderground v.1.15,2013-08-09 17:28:00,
2013-08-09 12:34:00,78.8,67.8,29.53,SW,218,0.0,0.0,69,0.00,,,0.00,Wunderground v.1.15,2013-08-09 17:34:00,
2013-08-09 12:39:00,78.8,66.5,29.54,SW,218,0.0,0.0,66,0.00,,,0.00,Wunderground v.1.15,2013-08-09 17:39:00,
2013-08-09 12:45:00,79.1,66.3,29.54,SW,218,0.0,3.0,65,0.00,,,0.00,Wunderground v.1.15,2013-08-09 17:45:00,
2013-08-09 12:50:00,79.4,67.9,29.54,SW,218,0.0,2.0,68,0.00,,,0.00,Wunderground v.1.15,2013-08-09 17:50:00,
2013-08-09 12:55:00,79.5,67.1,29.54,SW,218,0.0,2.0,66,0.00,,,0.00,Wunderground v.1.15,2013-08-09 17:55:00,
2013-08-09 13:00:00,-999.9,-99.9,29.54,SW,218,0.0,2.0,66,0.00,,,0.00,Wunderground v.1.15,2013-08-09 18:00:00,
2013-08-09 13:06:00,79.1,67.6,29.55,SW,218,0.0,2.0,68,0.00,,,0.00,Wunderground v.1.15,2013-08-09 18:06:00,
2013-08-09 13:11:00,79.1,66.8,29.55,SW,218,0.0,0.0,66,0.00,,,0.00,Wunderground v.1.15,2013-08-09 18:11:00,
2013-08-09 13:17:00,80.9,67.6,29.55,SW,218,0.0,0.0,64,0.00,,,0.00,Wunderground v.1.15,2013-08-09 18:17:00,
2013-08-09 13:22:00,78.8,65.6,29.55,SW,218,0.0,0.0,64,0.00,,,0.00,Wunderground v.1.15,2013-08-09 18:22:00,
2013-08-09 13:28:00,78.9,67.9,29.55,SW,218,0.0,0.0,69,0.00,,,0.00,Wunderground v.1.15,2013-08-09 18:28:00,
2013-08-09 13:33:00,-999.9,-99.9,29.55,SW,218,0.0,0.0,65,0.00,,,0.00,Wunderground v.1.15,2013-08-09 18:33:00,
2013-08-09 13:38:00,79.3,66.1,29.55,SW,218,0.0,0.0,64,0.00,,,0.00,Wunderground v.1.15,2013-08-09 18:38:00,
2013-08-09 13:44:00,-999.9,-99.9,29.55,SW,218,0.0,0.0,69,0.00,,,0.00,Wunderground v.1.15,2013-08-09 18:44:00,
2013-08-09 13:49:00,79.0,67.5,29.55,SW,218,0.0,0.0,68,0.00,,,0.00,Wunderground v.1.15,2013-08-09 18:49:00,
2013-08-09 13:53:00,78.8,66.9,29.55,SW,218,0.0,0.0,67,0.00,,,0.00,Wunderground v.1.15,2013-08-09 18:53:00,
2013-08-09 13:59:00,79.1,67.2,29.55,SW,218,0.0,5.0,67,0.00,,,0.00,Wunderground v.1.15,2013-08-09 18:59:00,
2013-08-09 14:04:00,78.8,67.3,29.54,SW,218,0.0,0.0,68,0.00,,,0.00,Wunderground v.1.15,2013-08-09 19:04:00,
2013-08-09 14:10:00,78.7,65.9,29.54,SW,218,0.0,0.0,65,0.00,,,0.00,Wunderground v.1.15,2013-08-09 19:10:00,
2013-08-09 14:15:00,78.7,67.2,29.54,SW,218,0.0,0.0,68,0.00,,,0.00,Wunderground v.1.15,2013-08-09 19:15:00,
2013-08-09 14:21:00,78.8,66.5,29.54,SW,218,0.0,0.0,66,0.00,,,0.00,Wunderground v.1.15,2013-08-09 19:21:00,
2013-08-09 14:27:00,79.0,67.5,29.54,SW,218,0.0,0.0,68,0.00,,,0.00,Wunderground v.1.15,2013-08-09 19:27:00,
2013-08-09 14:32:00,79.0,68.4,29.55,SW,218,0.0,0.0,70,0.00,,,0.00,Wunderground v.1.15,2013-08-09 19:32:00,
2013-08-09 14:38:00,79.2,68.6,29.54,SW,218,0.0,0.0,70,0.00,,,0.00,Wunderground v.1.15,2013-08-09 19:38:00,
2013-08-09 14:43:00,79.1,68.9,29.55,SW,218,0.0,0.0,71,0.00,,,0.00,Wunderground v.1.15,2013-08-09 19:43:00,
2013-08-09 14:49:00,79.0,68.0,29.55,SW,218,0.0,0.0,69,0.00,,,0.00,Wunderground v.1.15,2013-08-09 19:49:00,
2013-08-09 14:54:00,80.1,69.4,29.55,SW,218,0.0,0.0,70,0.00,,,0.00,Wunderground v.1.15,2013-08-09 19:54:00,
2013-08-09 15:00:00,78.9,69.5,29.55,SW,218,0.0,0.0,73,0.00,,,0.00,Wunderground v.1.15,2013-08-09 20:00:00,
2013-08-09 15:06:00,78.7,70.1,29.55,SW,218,0.0,0.0,75,0.00,,,0.00,Wunderground v.1.15,2013-08-09 20:06:00,
2013-08-09 15:12:00,78.3,68.5,29.55,SW,218,0.0,0.0,72,0.00,,,0.00,Wunderground v.1.15,2013-08-09 20:12:00,
2013-08-09 15:18:00,78.3,69.7,29.54,SW,218,0.0,0.0,75,0.00,,,0.00,Wunderground v.1.15,2013-08-09 20:18:00,
2013-08-09 15:24:00,78.3,68.1,29.54,SW,218,0.0,0.0,71,0.00,,,0.00,Wunderground v.1.15,2013-08-09 20:24:00,
2013-08-09 15:30:00,78.3,68.9,29.54,SW,218,0.0,0.0,73,0.00,,,0.00,Wunderground v.1.15,2013-08-09 20:30:00,
2013-08-09 15:35:00,78.3,68.1,29.54,SW,218,0.0,0.0,71,0.00,,,0.00,Wunderground v.1.15,2013-08-09 20:35:00,
2013-08-09 15:40:00,78.4,68.2,29.54,SW,218,0.0,1.0,71,0.00,,,0.00,Wunderground v.1.15,2013-08-09 20:40:00,
2013-08-09 15:46:00,78.5,68.7,29.54,SW,218,0.0,1.0,72,0.00,,,0.00,Wunderground v.1.15,2013-08-09 20:46:00,
2013-08-09 15:51:00,78.7,68.9,29.54,SW,218,0.0,2.0,72,0.00,,,0.00,Wunderground v.1.15,2013-08-09 20:51:00,
2013-08-09 15:56:00,78.8,67.3,29.53,SW,218,0.0,4.0,68,0.00,,,0.00,Wunderground v.1.15,2013-08-09 20:56:00,
2013-08-09 16:02:00,78.8,69.0,29.53,SW,218,0.0,0.0,72,0.00,,,0.00,Wunderground v.1.15,2013-08-09 21:02:00,
2013-08-09 16:07:00,78.8,67.8,29.53,SW,218,0.0,0.0,69,0.00,,,0.00,Wunderground v.1.15,2013-08-09 21:07:00,
2013-08-09 16:12:00,79.0,68.4,29.53,SW,218,0.0,0.0,70,0.00,,,0.00,Wunderground v.1.15,2013-08-09 21:12:00,
2013-08-09 16:21:00,79.4,69.6,29.53,SW,218,0.0,0.0,72,0.00,,,0.00,Wunderground v.1.15,2013-08-09 21:21:00,
2013-08-09 16:27:00,79.3,68.2,29.53,SW,218,0.0,0.0,69,0.00,,,0.00,Wunderground v.1.15,2013-08-09 21:27:00,
2013-08-09 16:32:00,79.3,68.2,29.53,SW,218,0.0,0.0,69,0.00,,,0.00,Wunderground v.1.15,2013-08-09 21:32:00,
2013-08-09 16:44:00,79.1,69.3,29.52,SW,218,0.0,0.0,72,0.00,,,0.00,Wunderground v.1.15,2013-08-09 21:44:00,
2013-08-09 16:50:00,79.1,68.1,29.52,SW,218,0.0,0.0,69,0.00,,,0.00,Wunderground v.1.15,2013-08-09 21:50:00,
2013-08-09 16:55:00,79.2,69.0,29.52,SW,218,0.0,0.0,71,0.00,,,0.00,Wunderground v.1.15,2013-08-09 21:55:00,
2013-08-09 17:00:00,79.3,68.7,29.52,SW,218,0.0,0.0,70,0.00,,,0.00,Wunderground v.1.15,2013-08-09 22:00:00,
2013-08-09 17:06:00,79.5,68.0,29.53,SW,218,0.0,0.0,68,0.00,,,0.00,Wunderground v.1.15,2013-08-09 22:06:00,
2013-08-09 17:11:00,79.5,67.6,29.52,SW,218,0.0,0.0,67,0.00,,,0.00,Wunderground v.1.15,2013-08-09 22:11:00,
2013-08-09 17:17:00,79.6,68.1,29.52,SW,218,0.0,0.0,68,0.00,,,0.00,Wunderground v.1.15,2013-08-09 22:17:00,
2013-08-09 17:22:00,79.3,67.8,29.52,SW,218,0.0,0.0,68,0.00,,,0.00,Wunderground v.1.15,2013-08-09 22:22:00,
2013-08-09 17:27:00,79.1,67.2,29.52,SW,218,0.0,0.0,67,0.00,,,0.00,Wunderground v.1.15,2013-08-09 22:27:00,
2013-08-09 17:33:00,78.9,67.4,29.52,SW,218,0.0,0.0,68,0.00,,,0.00,Wunderground v.1.15,2013-08-09 22:33:00,
2013-08-09 17:38:00,78.8,67.3,29.52,SW,218,0.0,0.0,68,0.00,,,0.00,Wunderground v.1.15,2013-08-09 22:38:00,
2013-08-09 17:43:00,79.1,68.1,29.52,SW,219,0.0,0.0,69,0.00,,,0.00,Wunderground v.1.15,2013-08-09 22:43:00,
2013-08-09 17:49:00,78.8,68.6,29.51,SW,218,0.0,0.0,71,0.00,,,0.00,Wunderground v.1.15,2013-08-09 22:49:00,
2013-08-09 17:54:00,78.6,66.7,29.52,SW,218,0.0,0.0,67,0.00,,,0.00,Wunderground v.1.15,2013-08-09 22:54:00,
2013-08-09 18:00:00,78.5,67.5,29.51,SW,218,0.0,0.0,69,0.00,,,0.00,Wunderground v.1.15,2013-08-09 23:00:00,
2013-08-09 18:06:00,78.5,69.5,29.51,SW,218,0.0,0.0,74,0.00,,,0.00,Wunderground v.1.15,2013-08-09 23:06:00,
2013-08-09 18:11:00,78.7,68.1,29.52,SW,218,0.0,0.0,70,0.00,,,0.00,Wunderground v.1.15,2013-08-09 23:11:00,
2013-08-09 18:17:00,78.4,68.6,29.51,SW,218,0.0,0.0,72,0.00,,,0.00,Wunderground v.1.15,2013-08-09 23:17:00,
2013-08-09 18:23:00,78.1,68.3,29.51,SW,218,0.0,0.0,72,0.00,,,0.00,Wunderground v.1.15,2013-08-09 23:23:00,
2013-08-09 18:29:00,-999.9,-99.9,29.52,SW,218,0.0,0.0,73,0.00,,,0.00,Wunderground v.1.15,2013-08-09 23:29:00,
2013-08-09 18:35:00,78.0,68.6,29.52,SW,218,0.0,0.0,73,0.00,,,0.00,Wunderground v.1.15,2013-08-09 23:35:00,
2013-08-09 18:41:00,77.9,69.7,29.53,SW,218,0.0,0.0,76,0.00,,,0.00,Wunderground v.1.15,2013-08-09 23:41:00,
2013-08-09 18:47:00,77.8,69.2,29.53,SW,218,0.0,0.0,75,0.00,,,0.00,Wunderground v.1.15,2013-08-09 23:47:00,
2013-08-09 18:53:00,77.4,68.9,29.53,SW,218,0.0,0.0,75,0.00,,,0.00,Wunderground v.1.15,2013-08-09 23:53:00,
2013-08-09 18:59:00,76.9,68.0,29.53,SW,218,0.0,0.0,74,0.00,,,0.00,Wunderground v.1.15,2013-08-09 23:59:00,
2013-08-09 19:05:00,76.4,66.7,29.53,SW,218,0.0,0.0,72,0.00,,,0.00,Wunderground v.1.15,2013-08-10 00:05:00,
2013-08-09 19:13:00,75.9,66.2,29.53,SW,218,0.0,0.0,72,0.00,,,0.00,Wunderground v.1.15,2013-08-10 00:13:00,
2013-08-09 19:18:00,75.7,65.6,29.53,SW,218,0.0,0.0,71,0.00,,,0.00,Wunderground v.1.15,2013-08-10 00:18:00,
2013-08-09 19:23:00,75.5,66.2,29.53,SW,218,0.0,0.0,73,0.00,,,0.00,Wunderground v.1.15,2013-08-10 00:23:00,
2013-08-09 19:29:00,75.5,67.0,29.53,SW,218,0.0,0.0,75,0.00,,,0.00,Wunderground v.1.15,2013-08-10 00:29:00,
2013-08-09 19:35:00,75.5,67.4,29.53,SW,218,0.0,0.0,76,0.00,,,0.00,Wunderground v.1.15,2013-08-10 00:35:00,
2013-08-09 19:40:00,75.4,68.1,29.53,SW,218,0.0,0.0,78,0.00,,,0.00,Wunderground v.1.15,2013-08-10 00:40:00,
2013-08-09 19:45:00,-999.9,-99.9,29.53,SW,218,0.0,0.0,79,0.00,,,0.00,Wunderground v.1.15,2013-08-10 00:45:00,
2013-08-09 19:50:00,75.1,68.9,29.53,SW,218,0.0,0.0,81,0.00,,,0.00,Wunderground v.1.15,2013-08-10 00:50:00,
2013-08-09 19:56:00,74.8,68.6,29.53,SW,218,0.0,0.0,81,0.00,,,0.00,Wunderground v.1.15,2013-08-10 00:56:00,
2013-08-09 20:02:00,75.6,69.0,29.53,SW,218,0.0,0.0,80,0.00,,,0.00,Wunderground v.1.15,2013-08-10 01:02:00,
2013-08-09 20:08:00,74.4,68.2,29.53,SW,218,0.0,0.0,81,0.00,,,0.00,Wunderground v.1.15,2013-08-10 01:08:00,
2013-08-09 20:13:00,74.2,68.0,29.53,SW,218,0.0,0.0,81,0.00,,,0.00,Wunderground v.1.15,2013-08-10 01:13:00,
2013-08-09 20:19:00,74.0,67.1,29.53,SW,218,0.0,0.0,79,0.00,,,0.00,Wunderground v.1.15,2013-08-10 01:19:00,
2013-08-09 20:24:00,73.8,66.9,29.54,SW,218,0.0,0.0,79,0.00,,,0.00,Wunderground v.1.15,2013-08-10 01:24:00,
2013-08-09 20:30:00,73.6,67.0,29.54,SW,218,0.0,0.0,80,0.00,,,0.00,Wunderground v.1.15,2013-08-10 01:30:00,
2013-08-09 20:35:00,73.7,-99.9,29.54,SW,218,0.0,0.0,255,0.00,,,0.00,Wunderground v.1.15,2013-08-10 01:35:00,
2013-08-09 20:40:00,73.5,67.3,29.54,SW,218,0.0,0.0,81,0.00,,,0.00,Wunderground v.1.15,2013-08-10 01:40:00,
2013-08-09 20:46:00,73.1,67.3,29.54,SW,218,0.0,0.0,82,0.00,,,0.00,Wunderground v.1.15,2013-08-10 01:46:00,
2013-08-09 20:51:00,73.0,67.2,29.54,SW,218,0.0,0.0,82,0.00,,,0.00,Wunderground v.1.15,2013-08-10 01:51:00,
2013-08-09 20:57:00,72.8,67.0,29.55,SW,218,0.0,0.0,82,0.00,,,0.00,Wunderground v.1.15,2013-08-10 01:57:00,
2013-08-09 21:02:00,73.0,66.8,29.55,SW,218,0.0,0.0,81,0.00,,,0.00,Wunderground v.1.15,2013-08-10 02:02:00,
2013-08-09 21:15:00,-999.9,-99.9,29.55,SW,218,0.0,0.0,255,0.00,,,0.00,Wunderground v.1.15,2013-08-10 02:15:00,
2013-08-09 21:22:00,-90.0,-93.3,29.55,SW,218,0.0,0.0,77,0.00,,,0.00,Wunderground v.1.15,2013-08-10 02:22:00,
2013-08-09 21:28:00,72.2,66.0,29.56,SW,218,0.0,0.0,81,0.00,,,0.00,Wunderground v.1.15,2013-08-10 02:28:00,
2013-08-09 21:33:00,73.0,67.2,29.55,SW,218,0.0,0.0,82,0.00,,,0.00,Wunderground v.1.15,2013-08-10 02:33:00,
2013-08-09 21:38:00,72.2,66.0,29.56,SW,218,0.0,0.0,81,0.00,,,0.00,Wunderground v.1.15,2013-08-10 02:38:00,
2013-08-09 21:43:00,71.9,66.1,29.55,SW,218,0.0,0.0,82,0.00,,,0.00,Wunderground v.1.15,2013-08-10 02:43:00,
2013-08-09 21:48:00,71.8,66.4,29.55,SW,218,0.0,0.0,83,0.00,,,0.00,Wunderground v.1.15,2013-08-10 02:48:00,
2013-08-09 21:54:00,71.7,66.3,29.55,SW,218,0.0,0.0,83,0.00,,,0.00,Wunderground v.1.15,2013-08-10 02:54:00,
2013-08-09 22:00:00,71.4,66.3,29.56,SW,218,0.0,0.0,84,0.00,,,0.00,Wunderground v.1.15,2013-08-10 03:00:00,
2013-08-09 22:06:00,71.6,66.2,29.56,SW,218,0.0,0.0,83,0.00,,,0.00,Wunderground v.1.15,2013-08-10 03:06:00,
2013-08-09 22:12:00,71.3,65.9,29.56,SW,218,0.0,0.0,83,0.00,,,0.00,Wunderground v.1.15,2013-08-10 03:12:00,
2013-08-09 22:17:00,71.1,65.7,29.56,SW,218,0.0,0.0,83,0.00,,,0.00,Wunderground v.1.15,2013-08-10 03:17:00,
2013-08-09 22:22:00,71.8,65.3,29.57,SW,218,0.0,0.0,80,0.00,,,0.00,Wunderground v.1.15,2013-08-10 03:22:00,
2013-08-09 22:28:00,71.1,65.7,29.57,SW,218,0.0,0.0,83,0.00,,,0.00,Wunderground v.1.15,2013-08-10 03:28:00,
2013-08-09 22:33:00,71.3,65.9,29.57,SW,218,0.0,0.0,83,0.00,,,0.00,Wunderground v.1.15,2013-08-10 03:33:00,
2013-08-09 22:38:00,70.8,65.0,29.57,SW,218,0.0,0.0,82,0.00,,,0.00,Wunderground v.1.15,2013-08-10 03:38:00,
2013-08-09 22:44:00,70.7,65.6,29.57,SW,218,0.0,0.0,84,0.00,,,0.00,Wunderground v.1.15,2013-08-10 03:44:00,
2013-08-09 22:50:00,70.5,65.1,29.57,SW,218,0.0,0.0,83,0.00,,,0.00,Wunderground v.1.15,2013-08-10 03:50:00,
2013-08-09 22:56:00,70.5,65.4,29.58,SW,218,0.0,0.0,84,0.00,,,0.00,Wunderground v.1.15,2013-08-10 03:56:00,
2013-08-09 23:14:00,71.2,65.4,29.58,SW,218,0.0,0.0,82,0.00,,,0.00,Wunderground v.1.15,2013-08-10 04:14:00,
2013-08-09 23:15:00,70.9,65.1,29.58,SW,218,0.0,0.0,82,0.00,,,0.00,Wunderground v.1.15,2013-08-10 04:15:00,
2013-08-09 23:20:00,71.0,64.5,29.58,SW,218,0.0,0.0,80,0.00,,,0.00,Wunderground v.1.15,2013-08-10 04:20:00,
2013-08-09 23:26:00,71.2,66.1,29.58,SW,218,0.0,0.0,84,0.00,,,0.00,Wunderground v.1.15,2013-08-10 04:26:00,
2013-08-09 23:31:00,70.5,65.1,29.58,SW,218,0.0,0.0,83,0.00,,,0.00,Wunderground v.1.15,2013-08-10 04:31:00,
2013-08-09 23:36:00,70.6,65.5,29.58,SW,218,0.0,0.0,84,0.00,,,0.00,Wunderground v.1.15,2013-08-10 04:36:00,
2013-08-09 23:42:00,70.4,65.0,29.58,SW,218,0.0,0.0,83,0.00,,,0.00,Wunderground v.1.15,2013-08-10 04:42:00,
2013-08-09 23:47:00,70.3,64.9,29.58,SW,218,0.0,0.0,83,0.00,,,0.00,Wunderground v.1.15,2013-08-10 04:47:00,
2013-08-09 23:52:00,70.2,64.8,29.58,SW,218,0.0,0.0,83,0.00,,,0.00,Wunderground v.1.15,2013-08-10 04:52:00,
2013-08-09 23:58:00,70.4,65.3,29.59,SW,218,0.0,0.0,84,0.00,,,0.00,Wunderground v.1.15,2013-08-10 04:58:00,